Time,TemperatureF,DewpointF,PressureIn,WindDirection,WindDirectionDegrees,WindSpeedMPH,WindSpeedGustMPH,Humidity,HourlyPrecipIn,Conditions,Clouds,dailyrainin,SoftwareType,DateUTC
2013-05-30 00:00:00,62.2,57.0,29.67,SSW,196,0.0,0.0,83,0.00,,,0.00,Wunderground v.1.15,2013-05-30 07:00:00,
2013-05-30 00:16:00,62.0,56.8,29.66,SSW,196,0.0,0.0,83,0.00,,,0.00,Wunderground v.1.15,2013-05-30 07:16:00,
2013-05-30 00:25:00,61.9,56.7,29.66,SSW,196,0.0,0.0,83,0.00,,,0.00,Wunderground v.1.15,2013-05-30 07:25:00,
2013-05-30 00:45:00,62.0,57.1,29.67,SSW,196,0.0,0.0,84,0.00,,,0.00,Wunderground v.1.15,2013-05-30 07:45:00,
2013-05-30 00:50:00,62.0,57.1,29.67,SSW,196,0.0,0.0,84,0.00,,,0.00,Wunderground v.1.15,2013-05-30 07:50:00,
2013-05-30 00:55:00,61.9,57.0,29.67,SSW,196,0.0,0.0,84,0.00,,,0.00,Wunderground v.1.15,2013-05-30 07:55:00,
2013-05-30 01:00:00,61.9,57.0,29.66,SSW,196,0.0,0.0,84,0.00,,,0.00,Wunderground v.1.15,2013-05-30 08:00:00,
2013-05-30 01:05:00,61.7,56.8,29.66,SSW,196,0.0,0.0,84,0.00,,,0.00,Wunderground v.1.15,2013-05-30 08:05:00,
2013-05-30 01:15:00,61.7,56.8,29.66,SSW,196,0.0,0.0,84,0.00,,,0.00,Wunderground v.1.15,2013-05-30 08:15:00,
2013-05-30 01:20:00,61.6,57.0,29.66,SSW,196,0.0,0.0,85,0.00,,,0.00,Wunderground v.1.15,2013-05-30 08:20:00,
2013-05-30 01:25:00,61.7,57.1,29.66,SSW,196,0.0,0.0,85,0.00,,,0.00,Wunderground v.1.15,2013-05-30 08:25:00,
2013-05-30 01:30:00,61.6,57.0,29.66,SSW,196,0.0,1.0,85,0.00,,,0.00,Wunderground v.1.15,2013-05-30 08:30:00,
2013-05-30 01:40:00,61.4,56.8,29.66,SSW,196,0.0,0.0,85,0.00,,,0.00,Wunderground v.1.15,2013-05-30 08:40:00,
2013-05-30 01:50:00,61.2,56.7,29.66,SSW,196,0.0,1.0,85,0.00,,,0.00,Wunderground v.1.15,2013-05-30 08:50:00,
2013-05-30 01:55:00,61.1,56.6,29.66,SSW,196,0.0,1.0,85,0.00,,,0.00,Wunderground v.1.15,2013-05-30 08:55:00,
2013-05-30 02:05:00,60.9,56.4,29.66,SSW,196,0.0,0.0,85,0.00,,,0.00,Wunderground v.1.15,2013-05-30 09:05:00,
2013-05-30 02:15:00,60.5,56.0,29.66,SSW,196,0.0,0.0,85,0.00,,,0.00,Wunderground v.1.15,2013-05-30 09:15:00,
2013-05-30 02:20:00,60.5,56.0,29.66,SSW,196,0.0,0.0,85,0.00,,,0.00,Wunderground v.1.15,2013-05-30 09:20:00,
2013-05-30 02:26:00,60.3,56.1,29.66,SSW,196,0.0,0.0,86,0.00,,,0.00,Wunderground v.1.15,2013-05-30 09:26:00,
2013-05-30 02:30:00,60.1,55.9,29.66,SSW,196,0.0,0.0,86,0.00,,,0.00,Wunderground v.1.15,2013-05-30 09:30:00,
2013-05-30 02:40:00,60.0,55.8,29.66,SSW,196,0.0,0.0,86,0.00,,,0.00,Wunderground v.1.15,2013-05-30 09:40:00,
2013-05-30 02:45:00,60.0,55.8,29.66,SSW,196,0.0,0.0,86,0.00,,,0.00,Wunderground v.1.15,2013-05-30 09:45:00,
2013-05-30 02:55:00,59.8,55.9,29.66,SSW,196,0.0,0.0,87,0.00,,,0.00,Wunderground v.1.15,2013-05-30 09:55:00,
2013-05-30 03:05:00,59.8,55.9,29.66,SSW,196,0.0,0.0,87,0.00,,,0.00,Wunderground v.1.15,2013-05-30 10:05:00,
2013-05-30 03:10:00,59.7,55.8,29.66,SSW,196,0.0,0.0,87,0.00,,,0.00,Wunderground v.1.15,2013-05-30 10:10:00,
2013-05-30 03:16:00,59.7,55.8,29.65,SSW,196,0.0,0.0,87,0.00,,,0.00,Wunderground v.1.15,2013-05-30 10:16:00,
2013-05-30 03:20:00,59.5,55.6,29.65,SSW,196,0.0,0.0,87,0.00,,,0.00,Wunderground v.1.15,2013-05-30 10:20:00,
2013-05-30 03:30:00,59.4,55.5,29.65,SSW,196,0.0,0.0,87,0.00,,,0.00,Wunderground v.1.15,2013-05-30 10:30:00,
2013-05-30 03:35:00,59.5,55.9,29.65,SSW,196,0.0,0.0,88,0.00,,,0.00,Wunderground v.1.15,2013-05-30 10:35:00,
2013-05-30 03:41:00,59.4,55.8,29.65,SSW,196,0.0,0.0,88,0.00,,,0.00,Wunderground v.1.15,2013-05-30 10:41:00,
2013-05-30 03:45:00,59.4,55.8,29.66,SSW,196,0.0,0.0,88,0.00,,,0.00,Wunderground v.1.15,2013-05-30 10:45:00,
2013-05-30 03:55:00,59.2,55.6,29.66,SSW,196,0.0,0.0,88,0.00,,,0.00,Wunderground v.1.15,2013-05-30 10:55:00,
2013-05-30 04:00:00,59.2,55.6,29.66,SSW,196,0.0,0.0,88,0.00,,,0.00,Wunderground v.1.15,2013-05-30 11:00:00,
2013-05-30 04:05:00,59.0,55.4,29.66,SSW,196,0.0,0.0,88,0.00,,,0.00,Wunderground v.1.15,2013-05-30 11:05:00,
2013-05-30 04:10:00,59.0,55.4,29.66,SSW,196,0.0,0.0,88,0.00,,,0.00,Wunderground v.1.15,2013-05-30 11:10:00,
2013-05-30 04:15:00,59.2,56.0,29.66,SSW,196,0.0,0.0,89,0.00,,,0.00,Wunderground v.1.15,2013-05-30 11:15:00,
2013-05-30 04:25:00,59.4,56.2,29.66,SSW,196,0.0,1.0,89,0.00,,,0.00,Wunderground v.1.15,2013-05-30 11:25:00,
2013-05-30 04:30:00,59.4,56.2,29.66,SSW,196,0.0,1.0,89,0.00,,,0.00,Wunderground v.1.15,2013-05-30 11:30:00,
2013-05-30 04:35:00,59.5,56.3,29.66,SSW,196,0.0,0.0,89,0.00,,,0.00,Wunderground v.1.15,2013-05-30 11:35:00,
2013-05-30 04:50:00,59.4,56.2,29.66,SSW,196,0.0,1.0,89,0.00,,,0.00,Wunderground v.1.15,2013-05-30 11:50:00,
2013-05-30 04:55:00,59.4,56.2,29.66,SSW,196,0.0,1.0,89,0.00,,,0.00,Wunderground v.1.15,2013-05-30 11:55:00,
2013-05-30 05:05:00,59.5,56.3,29.66,SSW,196,0.0,1.0,89,0.00,,,0.00,Wunderground v.1.15,2013-05-30 12:05:00,
2013-05-30 05:15:00,59.8,56.9,29.66,SE,141,2.0,4.0,90,0.00,,,0.00,Wunderground v.1.15,2013-05-30 12:15:00,
2013-05-30 05:20:00,60.3,57.0,29.66,SE,141,2.0,4.0,89,0.00,,,0.00,Wunderground v.1.15,2013-05-30 12:20:00,
2013-05-30 05:30:00,60.8,57.5,29.66,SE,134,2.0,2.0,89,0.00,,,0.00,Wunderground v.1.15,2013-05-30 12:30:00,
2013-05-30 05:35:00,60.8,57.5,29.66,SE,134,1.0,2.0,89,0.00,,,0.00,Wunderground v.1.15,2013-05-30 12:35:00,
2013-05-30 05:45:00,61.1,57.8,29.66,SE,134,1.0,2.0,89,0.00,,,0.00,Wunderground v.1.15,2013-05-30 12:45:00,
2013-05-30 05:50:00,61.2,57.9,29.66,SE,134,1.0,2.0,89,0.00,,,0.00,Wunderground v.1.15,2013-05-30 12:50:00,
2013-05-30 05:55:00,61.2,57.6,29.66,SE,134,2.0,2.0,88,0.00,,,0.00,Wunderground v.1.15,2013-05-30 12:55:00,
2013-05-30 06:00:00,61.4,57.8,29.66,SE,134,1.0,1.0,88,0.00,,,0.00,Wunderground v.1.15,2013-05-30 13:00:00,
2013-05-30 06:10:00,61.7,57.8,29.66,SE,134,2.0,2.0,87,0.00,,,0.00,Wunderground v.1.15,2013-05-30 13:10:00,
2013-05-30 06:15:00,61.7,57.8,29.67,SE,134,2.0,3.0,87,0.00,,,0.00,Wunderground v.1.15,2013-05-30 13:15:00,
2013-05-30 06:20:00,61.7,57.8,29.67,SE,134,2.0,2.0,87,0.00,,,0.00,Wunderground v.1.15,2013-05-30 13:20:00,
2013-05-30 06:36:00,62.0,57.8,29.68,SE,134,2.0,2.0,86,0.00,,,0.00,Wunderground v.1.15,2013-05-30 13:36:00,
2013-05-30 06:40:00,62.2,58.0,29.68,SE,134,2.0,2.0,86,0.00,,,0.00,Wunderground v.1.15,2013-05-30 13:40:00,
2013-05-30 06:45:00,62.4,57.8,29.69,SE,134,2.0,2.0,85,0.00,,,0.00,Wunderground v.1.15,2013-05-30 13:45:00,
2013-05-30 06:55:00,62.4,57.5,29.69,SE,134,4.0,5.0,84,0.00,,,0.00,Wunderground v.1.15,2013-05-30 13:55:00,
2013-05-30 07:00:00,62.5,57.6,29.69,ESE,113,3.0,3.0,84,0.00,,,0.00,Wunderground v.1.15,2013-05-30 14:00:00,
2013-05-30 07:05:00,62.7,57.5,29.69,SE,136,3.0,6.0,83,0.00,,,0.00,Wunderground v.1.15,2013-05-30 14:05:00,
2013-05-30 07:10:00,62.8,57.6,29.69,SSE,148,3.0,3.0,83,0.00,,,0.00,Wunderground v.1.15,2013-05-30 14:10:00,
2013-05-30 07:15:00,63.0,57.8,29.69,South,184,3.0,3.0,83,0.00,,,0.00,Wunderground v.1.15,2013-05-30 14:15:00,
2013-05-30 07:40:00,63.7,57.8,29.70,South,182,3.0,3.0,81,0.00,,,0.00,Wunderground v.1.15,2013-05-30 14:40:00,
2013-05-30 07:46:00,63.7,57.8,29.71,SE,141,3.0,3.0,81,0.00,,,0.00,Wunderground v.1.15,2013-05-30 14:46:00,
2013-05-30 07:50:00,63.8,57.5,29.71,SE,133,3.0,6.0,80,0.00,,,0.00,Wunderground v.1.15,2013-05-30 14:50:00,
2013-05-30 07:55:00,64.0,57.7,29.71,South,169,3.0,6.0,80,0.00,,,0.00,Wunderground v.1.15,2013-05-30 14:55:00,
2013-05-30 08:05:00,64.3,57.6,29.72,SSE,152,3.0,3.0,79,0.00,,,0.00,Wunderground v.1.15,2013-05-30 15:05:00,
2013-05-30 08:15:00,64.6,57.9,29.72,SE,127,2.0,5.0,79,0.00,,,0.00,Wunderground v.1.15,2013-05-30 15:15:00,
2013-05-30 08:20:00,64.6,57.6,29.72,SSE,164,3.0,3.0,78,0.00,,,0.00,Wunderground v.1.15,2013-05-30 15:20:00,
2013-05-30 08:30:00,64.6,57.6,29.72,ESE,117,4.0,4.0,78,0.00,,,0.00,Wunderground v.1.15,2013-05-30 15:30:00,
2013-05-30 09:05:00,65.6,58.2,29.73,South,171,4.0,4.0,77,0.00,,,0.00,Wunderground v.1.15,2013-05-30 16:05:00,
2013-05-30 09:10:00,65.8,58.4,29.73,SSE,160,4.0,6.0,77,0.00,,,0.00,Wunderground v.1.15,2013-05-30 16:10:00,
2013-05-30 09:20:00,66.1,58.3,29.73,ESE,120,3.0,6.0,76,0.00,,,0.00,Wunderground v.1.15,2013-05-30 16:20:00,
2013-05-30 09:30:00,66.3,57.8,29.73,SE,126,5.0,6.0,74,0.00,,,0.00,Wunderground v.1.15,2013-05-30 16:30:00,
2013-05-30 09:35:00,66.4,57.9,29.73,ESE,119,4.0,6.0,74,0.00,,,0.00,Wunderground v.1.15,2013-05-30 16:35:00,
2013-05-30 09:50:00,67.1,58.2,29.72,South,171,2.0,4.0,73,0.00,,,0.00,Wunderground v.1.15,2013-05-30 16:50:00,
2013-05-30 10:00:00,68.1,58.3,29.72,ESE,120,3.0,3.0,71,0.00,,,0.00,Wunderground v.1.15,2013-05-30 17:00:00,
2013-05-30 10:05:00,68.3,58.1,29.72,SE,127,2.0,3.0,70,0.00,,,0.00,Wunderground v.1.15,2013-05-30 17:05:00,
2013-05-30 10:15:00,69.1,58.5,29.73,SSW,193,3.0,3.0,69,0.00,,,0.00,Wunderground v.1.15,2013-05-30 17:15:00,
2013-05-30 10:30:00,70.0,58.5,29.73,SSW,198,4.0,6.0,67,0.00,,,0.00,Wunderground v.1.15,2013-05-30 17:30:00,
2013-05-30 10:35:00,70.3,58.8,29.73,South,189,4.0,6.0,67,0.00,,,0.00,Wunderground v.1.15,2013-05-30 17:35:00,
2013-05-30 10:45:00,71.0,58.6,29.73,SSW,199,3.0,5.0,65,0.00,,,0.00,Wunderground v.1.15,2013-05-30 17:45:00,
2013-05-30 10:50:00,70.8,58.9,29.73,SW,220,4.0,7.0,66,0.00,,,0.00,Wunderground v.1.15,2013-05-30 17:50:00,
2013-05-30 11:00:00,71.0,58.6,29.74,SSW,213,5.0,7.0,65,0.00,,,0.00,Wunderground v.1.15,2013-05-30 18:00:00,
2013-05-30 11:05:00,70.5,59.0,29.74,SSW,209,5.0,7.0,67,0.00,,,0.00,Wunderground v.1.15,2013-05-30 18:05:00,
2013-05-30 11:15:00,71.2,59.3,29.73,South,188,5.0,8.0,66,0.00,,,0.00,Wunderground v.1.15,2013-05-30 18:15:00,
2013-05-30 11:20:00,71.5,59.1,29.73,South,186,6.0,8.0,65,0.00,,,0.00,Wunderground v.1.15,2013-05-30 18:20:00,
2013-05-30 11:30:00,70.6,58.7,29.74,SSE,150,6.0,6.0,66,0.00,,,0.00,Wunderground v.1.15,2013-05-30 18:30:00,
2013-05-30 11:35:00,70.1,58.2,29.74,SW,223,6.0,7.0,66,0.00,,,0.00,Wunderground v.1.15,2013-05-30 18:35:00,
2013-05-30 11:41:00,70.1,58.2,29.74,South,186,6.0,6.0,66,0.00,,,0.00,Wunderground v.1.15,2013-05-30 18:41:00,
2013-05-30 11:45:00,70.1,57.8,29.74,West,281,6.0,7.0,65,0.00,,,0.00,Wunderground v.1.15,2013-05-30 18:45:00,
2013-05-30 11:55:00,71.0,58.6,29.74,SSW,206,5.0,5.0,65,0.00,,,0.00,Wunderground v.1.15,2013-05-30 18:55:00,
2013-05-30 12:10:00,70.1,58.6,29.75,South,184,7.0,7.0,67,0.00,,,0.00,Wunderground v.1.15,2013-05-30 19:10:00,
2013-05-30 12:15:00,70.6,59.1,29.75,SW,236,5.0,7.0,67,0.00,,,0.00,Wunderground v.1.15,2013-05-30 19:15:00,
2013-05-30 12:25:00,71.8,59.0,29.74,South,188,5.0,7.0,64,0.00,,,0.00,Wunderground v.1.15,2013-05-30 19:25:00,
2013-05-30 12:35:00,71.7,59.3,29.74,SE,140,5.0,5.0,65,0.00,,,0.00,Wunderground v.1.15,2013-05-30 19:35:00,
2013-05-30 12:40:00,72.0,58.7,29.74,SSW,193,5.0,5.0,63,0.00,,,0.00,Wunderground v.1.15,2013-05-30 19:40:00,
2013-05-30 12:45:00,72.2,58.5,29.74,SW,222,5.0,7.0,62,0.00,,,0.00,Wunderground v.1.15,2013-05-30 19:45:00,
2013-05-30 12:55:00,72.4,58.6,29.74,SSW,195,5.0,5.0,62,0.00,,,0.00,Wunderground v.1.15,2013-05-30 19:55:00,
2013-05-30 13:05:00,72.0,58.3,29.74,SSW,196,5.0,5.0,62,0.00,,,0.00,Wunderground v.1.15,2013-05-30 20:05:00,
2013-05-30 13:20:00,71.5,58.7,29.73,South,189,6.0,11.0,64,0.00,,,0.00,Wunderground v.1.15,2013-05-30 20:20:00,
2013-05-30 13:30:00,71.7,58.4,29.73,SSW,192,5.0,8.0,63,0.00,,,0.00,Wunderground v.1.15,2013-05-30 20:30:00,
2013-05-30 13:45:00,72.7,58.5,29.73,South,185,5.0,5.0,61,0.00,,,0.00,Wunderground v.1.15,2013-05-30 20:45:00,
2013-05-30 14:00:00,73.6,58.9,29.73,SSE,151,5.0,5.0,60,0.00,,,0.00,Wunderground v.1.15,2013-05-30 21:00:00,
2013-05-30 14:10:00,73.9,58.7,29.73,SW,222,5.0,5.0,59,0.00,,,0.00,Wunderground v.1.15,2013-05-30 21:10:00,
2013-05-30 14:20:00,73.4,58.7,29.73,South,186,6.0,10.0,60,0.00,,,0.00,Wunderground v.1.15,2013-05-30 21:20:00,
2013-05-30 14:25:00,73.4,58.2,29.73,South,181,6.0,10.0,59,0.00,,,0.00,Wunderground v.1.15,2013-05-30 21:25:00,
2013-05-30 14:35:00,73.6,58.4,29.72,South,178,6.0,6.0,59,0.00,,,0.00,Wunderground v.1.15,2013-05-30 21:35:00,
2013-05-30 14:45:00,73.2,58.5,29.72,South,181,7.0,7.0,60,0.00,,,0.00,Wunderground v.1.15,2013-05-30 21:45:00,
2013-05-30 14:50:00,72.7,58.0,29.72,SSE,154,8.0,8.0,60,0.00,,,0.00,Wunderground v.1.15,2013-05-30 21:50:00,
2013-05-30 14:56:00,73.1,58.4,29.72,SSW,202,7.0,7.0,60,0.00,,,0.00,Wunderground v.1.15,2013-05-30 21:56:00,
2013-05-30 15:00:00,73.4,58.2,29.72,SSE,157,6.0,10.0,59,0.00,,,0.00,Wunderground v.1.15,2013-05-30 22:00:00,
2013-05-30 15:10:00,73.2,58.0,29.72,SSW,195,6.0,9.0,59,0.00,,,0.00,Wunderground v.1.15,2013-05-30 22:10:00,
2013-05-30 15:15:00,73.1,57.9,29.72,South,175,6.0,9.0,59,0.00,,,0.00,Wunderground v.1.15,2013-05-30 22:15:00,
2013-05-30 15:20:00,72.7,58.0,29.72,SE,141,7.0,7.0,60,0.00,,,0.00,Wunderground v.1.15,2013-05-30 22:20:00,
2013-05-30 15:25:00,72.4,58.2,29.72,SE,143,7.0,7.0,61,0.00,,,0.00,Wunderground v.1.15,2013-05-30 22:25:00,
2013-05-30 15:35:00,72.2,58.0,29.72,South,182,6.0,6.0,61,0.00,,,0.00,Wunderground v.1.15,2013-05-30 22:35:00,
2013-05-30 15:45:00,73.4,58.7,29.71,SSE,167,7.0,7.0,60,0.00,,,0.00,Wunderground v.1.15,2013-05-30 22:45:00,
2013-05-30 15:50:00,73.6,58.4,29.71,SSE,165,6.0,7.0,59,0.00,,,0.00,Wunderground v.1.15,2013-05-30 22:50:00,
2013-05-30 15:55:00,73.6,57.9,29.71,SSE,154,5.0,5.0,58,0.00,,,0.00,Wunderground v.1.15,2013-05-30 22:55:00,
2013-05-30 16:00:00,72.9,57.7,29.71,South,175,6.0,7.0,59,0.00,,,0.00,Wunderground v.1.15,2013-05-30 23:00:00,
2013-05-30 16:11:00,72.4,58.2,29.71,SSW,205,7.0,7.0,61,0.00,,,0.00,Wunderground v.1.15,2013-05-30 23:11:00,
2013-05-30 16:15:00,72.5,58.3,29.70,SSW,195,7.0,7.0,61,0.00,,,0.00,Wunderground v.1.15,2013-05-30 23:15:00,
2013-05-30 16:25:00,72.5,58.3,29.70,South,189,6.0,6.0,61,0.00,,,0.00,Wunderground v.1.15,2013-05-30 23:25:00,
2013-05-30 16:30:00,72.4,58.6,29.70,SSW,193,6.0,6.0,62,0.00,,,0.00,Wunderground v.1.15,2013-05-30 23:30:00,
2013-05-30 16:40:00,72.0,58.3,29.71,SSW,209,6.0,10.0,62,0.00,,,0.00,Wunderground v.1.15,2013-05-30 23:40:00,
2013-05-30 16:50:00,72.0,58.7,29.70,South,191,6.0,6.0,63,0.00,,,0.00,Wunderground v.1.15,2013-05-30 23:50:00,
2013-05-30 17:05:00,71.2,58.8,29.70,South,176,5.0,5.0,65,0.00,,,0.00,Wunderground v.1.15,2013-05-31 00:05:00,
2013-05-30 17:10:00,71.5,58.7,29.70,South,182,4.0,5.0,64,0.00,,,0.00,Wunderground v.1.15,2013-05-31 00:10:00,
2013-05-30 17:16:00,71.2,58.8,29.70,South,169,4.0,6.0,65,0.00,,,0.00,Wunderground v.1.15,2013-05-31 00:16:00,
2013-05-30 17:20:00,71.2,58.8,29.70,SSE,157,5.0,6.0,65,0.00,,,0.00,Wunderground v.1.15,2013-05-31 00:20:00,
2013-05-30 17:31:00,71.0,59.1,29.71,SW,234,5.0,8.0,66,0.00,,,0.00,Wunderground v.1.15,2013-05-31 00:31:00,
2013-05-30 17:35:00,70.8,59.3,29.71,SSE,162,5.0,8.0,67,0.00,,,0.00,Wunderground v.1.15,2013-05-31 00:35:00,
2013-05-30 17:45:00,70.5,59.0,29.70,SSW,192,6.0,6.0,67,0.00,,,0.00,Wunderground v.1.15,2013-05-31 00:45:00,
2013-05-30 18:00:00,69.8,59.6,29.70,SW,219,5.0,11.0,70,0.00,,,0.00,Wunderground v.1.15,2013-05-31 01:00:00,
2013-05-30 18:05:00,69.4,59.2,29.70,SW,224,5.0,11.0,70,0.00,,,0.00,Wunderground v.1.15,2013-05-31 01:05:00,
2013-05-30 18:15:00,69.1,59.3,29.70,South,176,5.0,7.0,71,0.00,,,0.00,Wunderground v.1.15,2013-05-31 01:15:00,
2013-05-30 18:30:00,68.6,59.2,29.70,South,188,6.0,7.0,72,0.00,,,0.00,Wunderground v.1.15,2013-05-31 01:30:00,
2013-05-30 18:45:00,68.1,59.1,29.70,South,182,5.0,5.0,73,0.00,,,0.00,Wunderground v.1.15,2013-05-31 01:45:00,
2013-05-30 18:50:00,68.3,59.3,29.70,SSE,168,4.0,5.0,73,0.00,,,0.00,Wunderground v.1.15,2013-05-31 01:50:00,
2013-05-30 19:00:00,67.8,59.2,29.70,South,176,5.0,8.0,74,0.00,,,0.00,Wunderground v.1.15,2013-05-31 02:00:00,
2013-05-30 19:05:00,67.6,59.4,29.70,South,186,5.0,8.0,75,0.00,,,0.00,Wunderground v.1.15,2013-05-31 02:05:00,
2013-05-30 19:20:00,67.1,58.9,29.71,SE,143,4.0,5.0,75,0.00,,,0.00,Wunderground v.1.15,2013-05-31 02:20:00,
2013-05-30 19:25:00,66.8,59.0,29.71,SSE,161,5.0,5.0,76,0.00,,,0.00,Wunderground v.1.15,2013-05-31 02:25:00,
2013-05-30 19:35:00,66.4,59.3,29.72,South,188,3.0,6.0,78,0.00,,,0.00,Wunderground v.1.15,2013-05-31 02:35:00,
2013-05-30 19:45:00,65.8,58.7,29.72,SE,138,4.0,7.0,78,0.00,,,0.00,Wunderground v.1.15,2013-05-31 02:45:00,
2013-05-30 19:55:00,65.3,58.6,29.72,SSE,164,5.0,5.0,79,0.00,,,0.00,Wunderground v.1.15,2013-05-31 02:55:00,
2013-05-30 20:00:00,64.9,58.6,29.72,SSE,152,5.0,5.0,80,0.00,,,0.00,Wunderground v.1.15,2013-05-31 03:00:00,
2013-05-30 20:05:00,64.9,58.6,29.72,SSE,148,5.0,5.0,80,0.00,,,0.00,Wunderground v.1.15,2013-05-31 03:05:00,
2013-05-30 20:15:00,64.6,58.6,29.73,South,171,4.0,4.0,81,0.00,,,0.00,Wunderground v.1.15,2013-05-31 03:15:00,
2013-05-30 20:20:00,64.5,58.5,29.73,SSW,193,4.0,4.0,81,0.00,,,0.00,Wunderground v.1.15,2013-05-31 03:20:00,
2013-05-30 20:25:00,64.3,58.3,29.73,SSE,164,5.0,5.0,81,0.00,,,0.00,Wunderground v.1.15,2013-05-31 03:25:00,
2013-05-30 20:40:00,64.1,58.5,29.73,South,176,4.0,6.0,82,0.00,,,0.00,Wunderground v.1.15,2013-05-31 03:40:00,
2013-05-30 20:45:00,64.0,58.4,29.73,SSE,155,4.0,6.0,82,0.00,,,0.00,Wunderground v.1.15,2013-05-31 03:45:00,
2013-05-30 20:55:00,64.0,58.4,29.73,SSE,157,4.0,5.0,82,0.00,,,0.00,Wunderground v.1.15,2013-05-31 03:55:00,
2013-05-30 21:05:00,63.8,58.5,29.74,SSE,168,3.0,5.0,83,0.00,,,0.00,Wunderground v.1.15,2013-05-31 04:05:00,
2013-05-30 21:16:00,63.7,58.1,29.75,SE,140,3.0,3.0,82,0.00,,,0.00,Wunderground v.1.15,2013-05-31 04:16:00,
2013-05-30 21:20:00,63.7,58.1,29.75,South,172,3.0,3.0,82,0.00,,,0.00,Wunderground v.1.15,2013-05-31 04:20:00,
2013-05-30 21:25:00,63.7,58.1,29.75,South,175,3.0,3.0,82,0.00,,,0.00,Wunderground v.1.15,2013-05-31 04:25:00,
2013-05-30 21:35:00,63.7,58.1,29.75,South,172,3.0,6.0,82,0.00,,,0.00,Wunderground v.1.15,2013-05-31 04:35:00,
2013-05-30 21:40:00,63.7,58.1,29.75,SSE,165,3.0,6.0,82,0.00,,,0.00,Wunderground v.1.15,2013-05-31 04:40:00,
2013-05-30 21:45:00,63.5,57.9,29.75,South,186,4.0,10.0,82,0.00,,,0.00,Wunderground v.1.15,2013-05-31 04:45:00,
2013-05-30 21:55:00,63.5,57.9,29.76,South,178,3.0,3.0,82,0.00,,,0.00,Wunderground v.1.15,2013-05-31 04:55:00,
2013-05-30 22:00:00,63.7,58.1,29.76,SSW,195,3.0,3.0,82,0.00,,,0.00,Wunderground v.1.15,2013-05-31 05:00:00,
2013-05-30 22:05:00,63.5,57.6,29.77,South,186,4.0,8.0,81,0.00,,,0.00,Wunderground v.1.15,2013-05-31 05:05:00,
2013-05-30 22:15:00,63.7,57.8,29.77,SE,138,3.0,5.0,81,0.00,,,0.00,Wunderground v.1.15,2013-05-31 05:15:00,
2013-05-30 22:20:00,63.7,57.8,29.77,SE,144,3.0,7.0,81,0.00,,,0.00,Wunderground v.1.15,2013-05-31 05:20:00,
2013-05-30 22:30:00,63.7,57.8,29.77,SE,136,5.0,5.0,81,0.00,,,0.00,Wunderground v.1.15,2013-05-31 05:30:00,
2013-05-30 22:40:00,63.7,57.8,29.77,SSE,155,4.0,5.0,81,0.00,,,0.00,Wunderground v.1.15,2013-05-31 05:40:00,
2013-05-30 22:45:00,63.5,57.2,29.77,SE,136,4.0,7.0,80,0.00,,,0.00,Wunderground v.1.15,2013-05-31 05:45:00,
2013-05-30 22:50:00,63.5,57.2,29.77,ESE,103,4.0,4.0,80,0.00,,,0.00,Wunderground v.1.15,2013-05-31 05:50:00,
2013-05-30 22:55:00,63.5,57.2,29.77,SE,145,4.0,10.0,80,0.00,,,0.00,Wunderground v.1.15,2013-05-31 05:55:00,
2013-05-30 23:05:00,63.7,57.4,29.77,SSE,154,5.0,5.0,80,0.00,,,0.00,Wunderground v.1.15,2013-05-31 06:05:00,
2013-05-30 23:15:00,63.7,57.4,29.76,SE,138,5.0,5.0,80,0.00,,,0.00,Wunderground v.1.15,2013-05-31 06:15:00,
2013-05-30 23:25:00,63.5,57.2,29.76,SSE,161,5.0,6.0,80,0.00,,,0.00,Wunderground v.1.15,2013-05-31 06:25:00,
2013-05-30 23:35:00,63.5,57.2,29.77,ESE,107,5.0,5.0,80,0.00,,,0.00,Wunderground v.1.15,2013-05-31 06:35:00,
2013-05-30 23:40:00,63.5,57.2,29.77,SE,144,4.0,7.0,80,0.00,,,0.00,Wunderground v.1.15,2013-05-31 06:40:00,
2013-05-30 23:46:00,63.7,57.4,29.77,SSE,154,5.0,5.0,80,0.00,,,0.00,Wunderground v.1.15,2013-05-31 06:46:00,
2013-05-30 23:50:00,63.7,57.4,29.77,SE,136,4.0,8.0,80,0.00,,,0.00,Wunderground v.1.15,2013-05-31 06:50:00,